sensor_id;sensor_type;location;lat;lon;timestamp;temperature;humidity
50606;DHT22;36557;53.572;10.170;2023-09-07T00:01:08;19.70;99.90
50606;DHT22;36557;53.572;10.170;2023-09-07T00:03:34;19.70;99.90
50606;DHT22;36557;53.572;10.170;2023-09-07T00:06:00;19.60;99.90
50606;DHT22;36557;53.572;10.170;2023-09-07T00:08:25;19.60;99.90
50606;DHT22;36557;53.572;10.170;2023-09-07T00:10:51;19.60;99.90
50606;DHT22;36557;53.572;10.170;2023-09-07T00:13:17;19.50;99.90
50606;DHT22;36557;53.572;10.170;2023-09-07T00:15:43;19.60;99.90
50606;DHT22;36557;53.572;10.170;2023-09-07T00:18:09;19.60;99.90
50606;DHT22;36557;53.572;10.170;2023-09-07T00:20:35;19.50;99.90
50606;DHT22;36557;53.572;10.170;2023-09-07T00:23:01;19.50;99.90
50606;DHT22;36557;53.572;10.170;2023-09-07T00:25:27;19.50;99.90
50606;DHT22;36557;53.572;10.170;2023-09-07T00:27:53;19.50;99.90
50606;DHT22;36557;53.572;10.170;2023-09-07T00:30:19;19.50;99.90
50606;DHT22;36557;53.572;10.170;2023-09-07T00:32:44;19.50;99.90
50606;DHT22;36557;53.572;10.170;2023-09-07T00:35:10;19.40;99.90
50606;DHT22;36557;53.572;10.170;2023-09-07T00:37:37;19.30;99.90
50606;DHT22;36557;53.572;10.170;2023-09-07T00:40:04;19.30;99.90
50606;DHT22;36557;53.572;10.170;2023-09-07T00:42:34;19.30;99.90
50606;DHT22;36557;53.572;10.170;2023-09-07T00:45:00;19.30;99.90
50606;DHT22;36557;53.572;10.170;2023-09-07T00:47:25;19.20;99.90
50606;DHT22;36557;53.572;10.170;2023-09-07T00:49:51;19.20;99.90
50606;DHT22;36557;53.572;10.170;2023-09-07T00:52:17;19.20;99.90
50606;DHT22;36557;53.572;10.170;2023-09-07T00:54:44;19.20;99.90
50606;DHT22;36557;53.572;10.170;2023-09-07T00:57:10;19.10;99.90
50606;DHT22;36557;53.572;10.170;2023-09-07T00:59:36;19.10;99.90
50606;DHT22;36557;53.572;10.170;2023-09-07T01:02:01;19.00;99.90
50606;DHT22;36557;53.572;10.170;2023-09-07T01:07:01;18.90;99.90
50606;DHT22;36557;53.572;10.170;2023-09-07T01:09:30;19.00;99.90
50606;DHT22;36557;53.572;10.170;2023-09-07T01:11:57;19.00;99.90
50606;DHT22;36557;53.572;10.170;2023-09-07T01:14:23;19.00;99.90
50606;DHT22;36557;53.572;10.170;2023-09-07T01:16:49;18.90;99.90
50606;DHT22;36557;53.572;10.170;2023-09-07T01:19:16;18.90;99.90
50606;DHT22;36557;53.572;10.170;2023-09-07T01:21:42;18.80;99.90
50606;DHT22;36557;53.572;10.170;2023-09-07T01:24:09;18.70;99.90
50606;DHT22;36557;53.572;10.170;2023-09-07T01:26:36;18.80;99.90
50606;DHT22;36557;53.572;10.170;2023-09-07T01:29:05;18.80;99.90
50606;DHT22;36557;53.572;10.170;2023-09-07T01:31:37;18.70;99.90
50606;DHT22;36557;53.572;10.170;2023-09-07T01:34:04;18.80;99.90
50606;DHT22;36557;53.572;10.170;2023-09-07T01:36:30;18.70;99.90
50606;DHT22;36557;53.572;10.170;2023-09-07T01:38:55;18.70;99.90
50606;DHT22;36557;53.572;10.170;2023-09-07T01:41:21;18.60;99.90
50606;DHT22;36557;53.572;10.170;2023-09-07T01:43:48;18.70;99.90
50606;DHT22;36557;53.572;10.170;2023-09-07T01:46:14;18.60;99.90
50606;DHT22;36557;53.572;10.170;2023-09-07T01:48:39;18.60;99.90
50606;DHT22;36557;53.572;10.170;2023-09-07T01:51:07;18.60;99.90
50606;DHT22;36557;53.572;10.170;2023-09-07T01:53:33;18.60;99.90
50606;DHT22;36557;53.572;10.170;2023-09-07T01:55:59;18.60;99.90
50606;DHT22;36557;53.572;10.170;2023-09-07T01:58:24;18.50;99.90
50606;DHT22;36557;53.572;10.170;2023-09-07T02:00:52;18.50;99.90
50606;DHT22;36557;53.572;10.170;2023-09-07T02:03:18;18.40;99.90
50606;DHT22;36557;53.572;10.170;2023-09-07T02:05:45;18.40;99.90
50606;DHT22;36557;53.572;10.170;2023-09-07T02:08:11;18.40;99.90
50606;DHT22;36557;53.572;10.170;2023-09-07T02:10:37;18.40;99.90
50606;DHT22;36557;53.572;10.170;2023-09-07T02:13:03;18.40;99.90
50606;DHT22;36557;53.572;10.170;2023-09-07T02:15:29;18.30;99.90
50606;DHT22;36557;53.572;10.170;2023-09-07T02:17:55;18.40;99.90
50606;DHT22;36557;53.572;10.170;2023-09-07T02:20:20;18.20;99.90
50606;DHT22;36557;53.572;10.170;2023-09-07T02:22:46;18.30;99.90
50606;DHT22;36557;53.572;10.170;2023-09-07T02:25:12;18.30;99.90
50606;DHT22;36557;53.572;10.170;2023-09-07T02:27:37;18.30;99.90
50606;DHT22;36557;53.572;10.170;2023-09-07T02:30:04;18.20;99.90
50606;DHT22;36557;53.572;10.170;2023-09-07T02:32:31;18.20;99.90
50606;DHT22;36557;53.572;10.170;2023-09-07T02:34:57;18.30;99.90
50606;DHT22;36557;53.572;10.170;2023-09-07T02:37:23;18.30;99.90
50606;DHT22;36557;53.572;10.170;2023-09-07T02:39:48;18.20;99.90
50606;DHT22;36557;53.572;10.170;2023-09-07T02:42:14;18.20;99.90
50606;DHT22;36557;53.572;10.170;2023-09-07T02:44:40;18.20;99.90
50606;DHT22;36557;53.572;10.170;2023-09-07T02:47:05;18.10;99.90
50606;DHT22;36557;53.572;10.170;2023-09-07T02:49:31;18.10;99.90
50606;DHT22;36557;53.572;10.170;2023-09-07T02:51:57;18.10;99.90
50606;DHT22;36557;53.572;10.170;2023-09-07T02:54:23;18.00;99.90
50606;DHT22;36557;53.572;10.170;2023-09-07T02:56:49;18.00;99.90
50606;DHT22;36557;53.572;10.170;2023-09-07T02:59:14;18.00;99.90
50606;DHT22;36557;53.572;10.170;2023-09-07T03:01:40;18.00;99.90
50606;DHT22;36557;53.572;10.170;2023-09-07T03:04:06;18.10;99.90
50606;DHT22;36557;53.572;10.170;2023-09-07T03:06:33;18.00;99.90
50606;DHT22;36557;53.572;10.170;2023-09-07T03:08:58;18.00;99.90
50606;DHT22;36557;53.572;10.170;2023-09-07T03:11:25;17.90;99.90
50606;DHT22;36557;53.572;10.170;2023-09-07T03:13:50;17.90;99.90
50606;DHT22;36557;53.572;10.170;2023-09-07T03:16:16;17.90;99.90
50606;DHT22;36557;53.572;10.170;2023-09-07T03:18:42;17.90;99.90
50606;DHT22;36557;53.572;10.170;2023-09-07T03:21:08;17.90;99.90
50606;DHT22;36557;53.572;10.170;2023-09-07T03:23:34;17.90;99.90
50606;DHT22;36557;53.572;10.170;2023-09-07T03:26:00;17.90;99.90
50606;DHT22;36557;53.572;10.170;2023-09-07T03:28:26;17.90;99.90
50606;DHT22;36557;53.572;10.170;2023-09-07T03:30:53;17.80;99.90
50606;DHT22;36557;53.572;10.170;2023-09-07T03:33:19;17.80;99.90
50606;DHT22;36557;53.572;10.170;2023-09-07T03:35:45;17.70;99.90
50606;DHT22;36557;53.572;10.170;2023-09-07T03:38:10;17.70;99.90
50606;DHT22;36557;53.572;10.170;2023-09-07T03:40:36;17.60;99.90
50606;DHT22;36557;53.572;10.170;2023-09-07T03:43:02;17.70;99.90
50606;DHT22;36557;53.572;10.170;2023-09-07T03:45:28;17.60;99.90
50606;DHT22;36557;53.572;10.170;2023-09-07T03:47:53;17.60;99.90
50606;DHT22;36557;53.572;10.170;2023-09-07T03:50:19;17.60;99.90
50606;DHT22;36557;53.572;10.170;2023-09-07T03:52:45;17.50;99.90
50606;DHT22;36557;53.572;10.170;2023-09-07T03:55:11;17.50;99.90
50606;DHT22;36557;53.572;10.170;2023-09-07T03:57:37;17.40;99.90
50606;DHT22;36557;53.572;10.170;2023-09-07T04:00:03;17.40;99.90
50606;DHT22;36557;53.572;10.170;2023-09-07T04:02:33;17.50;99.90
50606;DHT22;36557;53.572;10.170;2023-09-07T04:04:59;17.40;99.90
50606;DHT22;36557;53.572;10.170;2023-09-07T04:07:27;17.40;99.90
50606;DHT22;36557;53.572;10.170;2023-09-07T04:09:53;17.30;99.90
50606;DHT22;36557;53.572;10.170;2023-09-07T04:12:18;17.20;99.90
50606;DHT22;36557;53.572;10.170;2023-09-07T04:14:44;17.30;99.90
50606;DHT22;36557;53.572;10.170;2023-09-07T04:17:10;17.20;99.90
50606;DHT22;36557;53.572;10.170;2023-09-07T04:19:36;17.20;99.90
50606;DHT22;36557;53.572;10.170;2023-09-07T04:22:02;17.20;99.90
50606;DHT22;36557;53.572;10.170;2023-09-07T04:24:27;17.20;99.90
50606;DHT22;36557;53.572;10.170;2023-09-07T04:26:53;17.10;99.90
50606;DHT22;36557;53.572;10.170;2023-09-07T05:57:26;18.20;99.90
50606;DHT22;36557;53.572;10.170;2023-09-07T05:59:51;18.20;99.90
50606;DHT22;36557;53.572;10.170;2023-09-07T06:02:17;18.20;99.90
50606;DHT22;36557;53.572;10.170;2023-09-07T06:04:43;18.30;99.90
50606;DHT22;36557;53.572;10.170;2023-09-07T06:07:09;18.40;99.90
50606;DHT22;36557;53.572;10.170;2023-09-07T06:09:34;18.40;99.90
50606;DHT22;36557;53.572;10.170;2023-09-07T06:12:02;18.50;99.90
50606;DHT22;36557;53.572;10.170;2023-09-07T06:14:28;18.50;99.90
50606;DHT22;36557;53.572;10.170;2023-09-07T06:16:54;18.60;99.90
50606;DHT22;36557;53.572;10.170;2023-09-07T06:19:19;18.70;99.90
50606;DHT22;36557;53.572;10.170;2023-09-07T06:21:45;18.80;99.90
50606;DHT22;36557;53.572;10.170;2023-09-07T06:24:11;18.80;99.90
50606;DHT22;36557;53.572;10.170;2023-09-07T06:26:37;18.80;99.90
50606;DHT22;36557;53.572;10.170;2023-09-07T06:29:02;18.80;99.90
50606;DHT22;36557;53.572;10.170;2023-09-07T06:31:28;18.90;99.90
50606;DHT22;36557;53.572;10.170;2023-09-07T06:33:54;19.00;99.90
50606;DHT22;36557;53.572;10.170;2023-09-07T06:36:20;19.10;99.90
50606;DHT22;36557;53.572;10.170;2023-09-07T06:38:45;19.10;99.90
50606;DHT22;36557;53.572;10.170;2023-09-07T06:41:11;19.10;99.90
50606;DHT22;36557;53.572;10.170;2023-09-07T06:43:37;19.20;99.90
50606;DHT22;36557;53.572;10.170;2023-09-07T06:46:07;19.20;99.90
50606;DHT22;36557;53.572;10.170;2023-09-07T06:48:34;19.50;99.90
50606;DHT22;36557;53.572;10.170;2023-09-07T06:51:03;19.50;99.90
50606;DHT22;36557;53.572;10.170;2023-09-07T06:53:29;19.70;99.90
50606;DHT22;36557;53.572;10.170;2023-09-07T06:56:02;19.80;99.90
50606;DHT22;36557;53.572;10.170;2023-09-07T06:58:28;19.90;99.90
50606;DHT22;36557;53.572;10.170;2023-09-07T07:00:58;19.90;99.90
50606;DHT22;36557;53.572;10.170;2023-09-07T07:03:28;20.00;99.90
50606;DHT22;36557;53.572;10.170;2023-09-07T07:05:55;20.20;99.90
50606;DHT22;36557;53.572;10.170;2023-09-07T07:08:21;20.40;99.90
50606;DHT22;36557;53.572;10.170;2023-09-07T07:10:46;20.40;99.90
50606;DHT22;36557;53.572;10.170;2023-09-07T07:13:12;20.40;99.90
50606;DHT22;36557;53.572;10.170;2023-09-07T07:15:38;20.60;99.90
50606;DHT22;36557;53.572;10.170;2023-09-07T07:18:04;20.60;99.90
50606;DHT22;36557;53.572;10.170;2023-09-07T07:20:42;20.70;99.90
50606;DHT22;36557;53.572;10.170;2023-09-07T07:23:09;20.70;99.90
50606;DHT22;36557;53.572;10.170;2023-09-07T07:25:35;20.70;99.90
50606;DHT22;36557;53.572;10.170;2023-09-07T07:28:05;20.90;99.90
50606;DHT22;36557;53.572;10.170;2023-09-07T07:30:36;21.00;99.90
50606;DHT22;36557;53.572;10.170;2023-09-07T07:33:03;21.10;99.90
50606;DHT22;36557;53.572;10.170;2023-09-07T07:35:32;21.30;99.90
50606;DHT22;36557;53.572;10.170;2023-09-07T07:37:57;21.50;99.90
50606;DHT22;36557;53.572;10.170;2023-09-07T07:40:23;21.60;99.90
50606;DHT22;36557;53.572;10.170;2023-09-07T07:42:51;21.50;99.90
50606;DHT22;36557;53.572;10.170;2023-09-07T07:45:17;21.60;99.90
50606;DHT22;36557;53.572;10.170;2023-09-07T07:47:45;21.70;99.90
50606;DHT22;36557;53.572;10.170;2023-09-07T07:50:11;21.80;99.90
50606;DHT22;36557;53.572;10.170;2023-09-07T07:52:37;21.90;99.90
50606;DHT22;36557;53.572;10.170;2023-09-07T07:55:03;21.90;99.90
50606;DHT22;36557;53.572;10.170;2023-09-07T07:57:29;22.10;99.90
50606;DHT22;36557;53.572;10.170;2023-09-07T07:59:56;22.20;99.90
50606;DHT22;36557;53.572;10.170;2023-09-07T08:02:21;22.40;99.90
50606;DHT22;36557;53.572;10.170;2023-09-07T08:04:47;22.50;99.90
50606;DHT22;36557;53.572;10.170;2023-09-07T08:07:13;22.60;99.90
50606;DHT22;36557;53.572;10.170;2023-09-07T08:09:38;22.90;99.90
50606;DHT22;36557;53.572;10.170;2023-09-07T08:12:05;23.10;99.90
50606;DHT22;36557;53.572;10.170;2023-09-07T08:14:31;23.00;99.90
50606;DHT22;36557;53.572;10.170;2023-09-07T08:16:57;23.20;99.90
50606;DHT22;36557;53.572;10.170;2023-09-07T08:19:24;23.30;99.90
50606;DHT22;36557;53.572;10.170;2023-09-07T08:21:50;23.60;99.90
50606;DHT22;36557;53.572;10.170;2023-09-07T08:24:16;23.50;99.90
50606;DHT22;36557;53.572;10.170;2023-09-07T08:26:43;23.60;99.90
50606;DHT22;36557;53.572;10.170;2023-09-07T08:29:09;23.60;99.90
50606;DHT22;36557;53.572;10.170;2023-09-07T08:31:36;23.60;99.90
50606;DHT22;36557;53.572;10.170;2023-09-07T08:34:05;23.80;99.90
50606;DHT22;36557;53.572;10.170;2023-09-07T08:36:31;24.20;99.90
50606;DHT22;36557;53.572;10.170;2023-09-07T08:39:01;24.30;99.90
50606;DHT22;36557;53.572;10.170;2023-09-07T08:41:32;24.30;99.90
50606;DHT22;36557;53.572;10.170;2023-09-07T08:44:00;24.20;99.90
50606;DHT22;36557;53.572;10.170;2023-09-07T08:46:26;24.50;99.90
50606;DHT22;36557;53.572;10.170;2023-09-07T08:48:54;24.60;99.90
50606;DHT22;36557;53.572;10.170;2023-09-07T08:51:21;24.60;99.90
50606;DHT22;36557;53.572;10.170;2023-09-07T08:53:48;24.80;99.90
50606;DHT22;36557;53.572;10.170;2023-09-07T08:56:16;25.20;99.90
50606;DHT22;36557;53.572;10.170;2023-09-07T08:58:42;25.20;99.90
50606;DHT22;36557;53.572;10.170;2023-09-07T09:01:10;25.10;99.90
50606;DHT22;36557;53.572;10.170;2023-09-07T09:03:36;25.10;99.90
50606;DHT22;36557;53.572;10.170;2023-09-07T09:06:03;25.10;99.90
50606;DHT22;36557;53.572;10.170;2023-09-07T09:08:29;25.30;99.90
50606;DHT22;36557;53.572;10.170;2023-09-07T09:11:02;25.50;99.90
50606;DHT22;36557;53.572;10.170;2023-09-07T09:13:31;25.80;99.90
50606;DHT22;36557;53.572;10.170;2023-09-07T09:15:59;25.90;99.90
50606;DHT22;36557;53.572;10.170;2023-09-07T09:18:26;25.70;99.90
50606;DHT22;36557;53.572;10.170;2023-09-07T09:20:54;25.70;99.90
50606;DHT22;36557;53.572;10.170;2023-09-07T09:23:20;25.80;99.90
50606;DHT22;36557;53.572;10.170;2023-09-07T09:25:48;26.00;99.90
50606;DHT22;36557;53.572;10.170;2023-09-07T09:28:14;25.90;99.80
50606;DHT22;36557;53.572;10.170;2023-09-07T09:30:41;26.10;99.90
50606;DHT22;36557;53.572;10.170;2023-09-07T09:33:10;26.20;99.90
50606;DHT22;36557;53.572;10.170;2023-09-07T09:35:36;26.20;99.90
50606;DHT22;36557;53.572;10.170;2023-09-07T09:38:02;26.20;99.80
50606;DHT22;36557;53.572;10.170;2023-09-07T09:40:34;26.40;98.90
50606;DHT22;36557;53.572;10.170;2023-09-07T09:43:02;26.30;98.10
50606;DHT22;36557;53.572;10.170;2023-09-07T09:45:28;26.10;98.60
50606;DHT22;36557;53.572;10.170;2023-09-07T09:47:55;26.20;98.40
50606;DHT22;36557;53.572;10.170;2023-09-07T09:50:22;26.20;99.00
50606;DHT22;36557;53.572;10.170;2023-09-07T09:52:48;26.40;99.00
50606;DHT22;36557;53.572;10.170;2023-09-07T09:55:15;26.60;98.70
50606;DHT22;36557;53.572;10.170;2023-09-07T09:57:41;26.60;98.70
50606;DHT22;36557;53.572;10.170;2023-09-07T10:00:08;26.60;98.20
50606;DHT22;36557;53.572;10.170;2023-09-07T10:02:47;27.00;99.50
50606;DHT22;36557;53.572;10.170;2023-09-07T10:05:13;26.90;99.50
50606;DHT22;36557;53.572;10.170;2023-09-07T10:07:49;27.40;98.70
50606;DHT22;36557;53.572;10.170;2023-09-07T10:10:17;27.40;97.20
50606;DHT22;36557;53.572;10.170;2023-09-07T10:12:45;27.40;99.00
50606;DHT22;36557;53.572;10.170;2023-09-07T10:15:24;27.60;99.80
50606;DHT22;36557;53.572;10.170;2023-09-07T10:18:12;27.10;99.90
50606;DHT22;36557;53.572;10.170;2023-09-07T10:28:27;27.80;99.90
50606;DHT22;36557;53.572;10.170;2023-09-07T10:33:39;28.20;99.90
50606;DHT22;36557;53.572;10.170;2023-09-07T10:36:05;27.80;99.90
50606;DHT22;36557;53.572;10.170;2023-09-07T10:38:32;27.70;99.90
50606;DHT22;36557;53.572;10.170;2023-09-07T10:41:00;27.70;99.90
50606;DHT22;36557;53.572;10.170;2023-09-07T10:43:28;28.00;99.90
50606;DHT22;36557;53.572;10.170;2023-09-07T10:45:57;27.70;99.90
50606;DHT22;36557;53.572;10.170;2023-09-07T10:48:29;27.90;99.90
50606;DHT22;36557;53.572;10.170;2023-09-07T10:50:55;27.80;99.90
50606;DHT22;36557;53.572;10.170;2023-09-07T10:53:32;27.90;99.90
50606;DHT22;36557;53.572;10.170;2023-09-07T10:56:05;27.80;99.90
50606;DHT22;36557;53.572;10.170;2023-09-07T10:58:35;28.00;99.90
50606;DHT22;36557;53.572;10.170;2023-09-07T11:01:04;28.10;99.90
50606;DHT22;36557;53.572;10.170;2023-09-07T11:03:30;28.50;99.90
50606;DHT22;36557;53.572;10.170;2023-09-07T11:06:02;28.70;99.90
50606;DHT22;36557;53.572;10.170;2023-09-07T11:08:29;28.90;99.90
50606;DHT22;36557;53.572;10.170;2023-09-07T11:10:55;28.60;99.90
50606;DHT22;36557;53.572;10.170;2023-09-07T11:13:25;28.50;99.90
50606;DHT22;36557;53.572;10.170;2023-09-07T11:15:56;28.80;99.90
50606;DHT22;36557;53.572;10.170;2023-09-07T11:18:25;29.30;99.90
50606;DHT22;36557;53.572;10.170;2023-09-07T11:23:18;29.20;91.80
50606;DHT22;36557;53.572;10.170;2023-09-07T11:25:46;29.10;91.70
50606;DHT22;36557;53.572;10.170;2023-09-07T11:28:12;29.20;91.50
50606;DHT22;36557;53.572;10.170;2023-09-07T11:30:52;29.20;91.50
50606;DHT22;36557;53.572;10.170;2023-09-07T11:33:19;28.90;91.80
50606;DHT22;36557;53.572;10.170;2023-09-07T11:35:45;28.80;91.30
50606;DHT22;36557;53.572;10.170;2023-09-07T11:38:13;29.10;92.60
50606;DHT22;36557;53.572;10.170;2023-09-07T11:40:39;29.30;91.40
50606;DHT22;36557;53.572;10.170;2023-09-07T11:43:04;29.50;92.10
50606;DHT22;36557;53.572;10.170;2023-09-07T11:45:30;29.50;91.00
50606;DHT22;36557;53.572;10.170;2023-09-07T11:47:57;29.90;90.00
50606;DHT22;36557;53.572;10.170;2023-09-07T11:50:24;29.40;90.60
50606;DHT22;36557;53.572;10.170;2023-09-07T11:52:55;29.20;91.50
50606;DHT22;36557;53.572;10.170;2023-09-07T11:55:22;29.70;91.30
50606;DHT22;36557;53.572;10.170;2023-09-07T11:57:47;29.80;90.40
50606;DHT22;36557;53.572;10.170;2023-09-07T12:00:14;30.20;91.40
50606;DHT22;36557;53.572;10.170;2023-09-07T12:02:41;30.00;90.80
50606;DHT22;36557;53.572;10.170;2023-09-07T12:05:07;29.70;90.50
50606;DHT22;36557;53.572;10.170;2023-09-07T12:07:40;29.70;91.00
50606;DHT22;36557;53.572;10.170;2023-09-07T12:10:06;30.50;90.00
50606;DHT22;36557;53.572;10.170;2023-09-07T12:12:38;30.10;90.30
50606;DHT22;36557;53.572;10.170;2023-09-07T12:15:04;30.20;90.30
50606;DHT22;36557;53.572;10.170;2023-09-07T12:19:56;30.30;89.30
50606;DHT22;36557;53.572;10.170;2023-09-07T12:22:22;30.50;90.40
50606;DHT22;36557;53.572;10.170;2023-09-07T12:24:48;30.60;88.00
50606;DHT22;36557;53.572;10.170;2023-09-07T12:27:14;30.60;88.30
50606;DHT22;36557;53.572;10.170;2023-09-07T12:29:40;30.90;87.10
50606;DHT22;36557;53.572;10.170;2023-09-07T12:32:06;30.30;84.60
50606;DHT22;36557;53.572;10.170;2023-09-07T12:34:31;30.60;86.60
50606;DHT22;36557;53.572;10.170;2023-09-07T12:36:57;30.80;88.50
50606;DHT22;36557;53.572;10.170;2023-09-07T12:39:24;30.40;83.60
50606;DHT22;36557;53.572;10.170;2023-09-07T12:41:50;30.20;85.30
50606;DHT22;36557;53.572;10.170;2023-09-07T12:44:16;30.60;86.70
50606;DHT22;36557;53.572;10.170;2023-09-07T12:46:44;30.30;84.10
50606;DHT22;36557;53.572;10.170;2023-09-07T12:49:10;30.20;84.70
50606;DHT22;36557;53.572;10.170;2023-09-07T12:51:35;29.90;85.10
50606;DHT22;36557;53.572;10.170;2023-09-07T12:54:01;30.20;85.00
50606;DHT22;36557;53.572;10.170;2023-09-07T12:56:28;30.30;84.30
50606;DHT22;36557;53.572;10.170;2023-09-07T12:58:55;30.20;84.70
50606;DHT22;36557;53.572;10.170;2023-09-07T13:01:22;30.20;83.40
50606;DHT22;36557;53.572;10.170;2023-09-07T13:03:48;30.20;84.10
50606;DHT22;36557;53.572;10.170;2023-09-07T13:06:14;30.60;83.20
50606;DHT22;36557;53.572;10.170;2023-09-07T13:08:40;30.90;84.10
50606;DHT22;36557;53.572;10.170;2023-09-07T13:11:05;30.90;81.60
50606;DHT22;36557;53.572;10.170;2023-09-07T13:13:31;30.80;81.80
50606;DHT22;36557;53.572;10.170;2023-09-07T13:15:57;31.10;82.00
50606;DHT22;36557;53.572;10.170;2023-09-07T13:18:23;31.30;79.80
50606;DHT22;36557;53.572;10.170;2023-09-07T13:20:48;30.80;81.10
50606;DHT22;36557;53.572;10.170;2023-09-07T13:23:20;31.00;80.90
50606;DHT22;36557;53.572;10.170;2023-09-07T13:25:46;31.10;80.40
50606;DHT22;36557;53.572;10.170;2023-09-07T13:28:11;30.90;81.10
50606;DHT22;36557;53.572;10.170;2023-09-07T13:30:37;30.70;79.90
50606;DHT22;36557;53.572;10.170;2023-09-07T13:33:03;30.30;80.40
50606;DHT22;36557;53.572;10.170;2023-09-07T13:35:29;30.60;80.00
50606;DHT22;36557;53.572;10.170;2023-09-07T13:37:55;30.80;81.90
50606;DHT22;36557;53.572;10.170;2023-09-07T13:40:20;31.20;79.70
50606;DHT22;36557;53.572;10.170;2023-09-07T13:42:49;30.80;78.40
50606;DHT22;36557;53.572;10.170;2023-09-07T13:45:15;30.70;80.00
50606;DHT22;36557;53.572;10.170;2023-09-07T13:47:40;30.90;79.30
50606;DHT22;36557;53.572;10.170;2023-09-07T13:50:07;30.90;80.70
50606;DHT22;36557;53.572;10.170;2023-09-07T13:52:32;31.00;80.60
50606;DHT22;36557;53.572;10.170;2023-09-07T13:54:58;31.10;79.70
50606;DHT22;36557;53.572;10.170;2023-09-07T13:57:24;30.60;79.90
50606;DHT22;36557;53.572;10.170;2023-09-07T13:59:49;30.90;81.10
50606;DHT22;36557;53.572;10.170;2023-09-07T14:02:15;30.80;77.50
50606;DHT22;36557;53.572;10.170;2023-09-07T14:04:41;30.90;78.70
50606;DHT22;36557;53.572;10.170;2023-09-07T14:07:07;30.90;78.10
50606;DHT22;36557;53.572;10.170;2023-09-07T14:09:32;30.90;79.50
50606;DHT22;36557;53.572;10.170;2023-09-07T14:12:00;31.30;77.10
50606;DHT22;36557;53.572;10.170;2023-09-07T14:14:25;31.20;77.70
50606;DHT22;36557;53.572;10.170;2023-09-07T14:16:51;31.40;80.30
50606;DHT22;36557;53.572;10.170;2023-09-07T14:19:22;31.00;81.30
50606;DHT22;36557;53.572;10.170;2023-09-07T14:21:47;31.00;77.90
50606;DHT22;36557;53.572;10.170;2023-09-07T14:24:13;30.60;78.50
50606;DHT22;36557;53.572;10.170;2023-09-07T14:26:39;30.70;79.80
50606;DHT22;36557;53.572;10.170;2023-09-07T14:29:04;31.10;78.00
50606;DHT22;36557;53.572;10.170;2023-09-07T14:31:30;30.60;76.70
50606;DHT22;36557;53.572;10.170;2023-09-07T14:33:56;30.20;78.20
50606;DHT22;36557;53.572;10.170;2023-09-07T14:36:22;30.70;78.70
50606;DHT22;36557;53.572;10.170;2023-09-07T14:38:47;30.30;77.40
50606;DHT22;36557;53.572;10.170;2023-09-07T14:41:13;29.80;78.60
50606;DHT22;36557;53.572;10.170;2023-09-07T14:43:45;29.90;77.90
50606;DHT22;36557;53.572;10.170;2023-09-07T14:46:11;30.20;77.80
50606;DHT22;36557;53.572;10.170;2023-09-07T14:48:37;30.00;78.30
50606;DHT22;36557;53.572;10.170;2023-09-07T14:53:29;30.20;78.60
50606;DHT22;36557;53.572;10.170;2023-09-07T14:55:56;30.20;77.30
50606;DHT22;36557;53.572;10.170;2023-09-07T14:58:22;29.80;76.80
50606;DHT22;36557;53.572;10.170;2023-09-07T15:00:47;29.50;80.20
50606;DHT22;36557;53.572;10.170;2023-09-07T15:03:13;29.40;78.30
50606;DHT22;36557;53.572;10.170;2023-09-07T15:05:39;29.90;78.10
50606;DHT22;36557;53.572;10.170;2023-09-07T15:08:05;29.90;79.50
50606;DHT22;36557;53.572;10.170;2023-09-07T15:10:32;30.00;77.20
50606;DHT22;36557;53.572;10.170;2023-09-07T15:13:02;29.90;97.80
50606;DHT22;36557;53.572;10.170;2023-09-07T15:15:29;29.90;97.60
50606;DHT22;36557;53.572;10.170;2023-09-07T15:20:25;29.30;75.50
50606;DHT22;36557;53.572;10.170;2023-09-07T15:22:50;29.40;77.00
50606;DHT22;36557;53.572;10.170;2023-09-07T15:27:46;30.00;83.10
50606;DHT22;36557;53.572;10.170;2023-09-07T15:30:12;29.50;86.00
50606;DHT22;36557;53.572;10.170;2023-09-07T15:32:38;29.40;85.90
50606;DHT22;36557;53.572;10.170;2023-09-07T15:35:06;29.10;86.10
50606;DHT22;36557;53.572;10.170;2023-09-07T15:37:32;29.30;89.20
50606;DHT22;36557;53.572;10.170;2023-09-07T15:39:58;29.50;78.20
50606;DHT22;36557;53.572;10.170;2023-09-07T15:42:23;29.10;75.70
50606;DHT22;36557;53.572;10.170;2023-09-07T15:44:49;29.10;76.50
50606;DHT22;36557;53.572;10.170;2023-09-07T15:47:15;29.00;76.90
50606;DHT22;36557;53.572;10.170;2023-09-07T15:49:41;29.20;91.80
50606;DHT22;36557;53.572;10.170;2023-09-07T15:52:09;28.70;77.20
50606;DHT22;36557;53.572;10.170;2023-09-07T15:54:35;28.60;85.10
50606;DHT22;36557;53.572;10.170;2023-09-07T15:57:02;28.40;77.30
50606;DHT22;36557;53.572;10.170;2023-09-07T15:59:29;28.60;78.60
50606;DHT22;36557;53.572;10.170;2023-09-07T16:01:55;28.50;76.20
50606;DHT22;36557;53.572;10.170;2023-09-07T16:04:22;28.30;76.40
50606;DHT22;36557;53.572;10.170;2023-09-07T16:06:48;28.20;76.60
50606;DHT22;36557;53.572;10.170;2023-09-07T16:09:15;28.20;76.70
50606;DHT22;36557;53.572;10.170;2023-09-07T16:11:40;28.10;77.70
50606;DHT22;36557;53.572;10.170;2023-09-07T16:14:06;28.10;77.40
50606;DHT22;36557;53.572;10.170;2023-09-07T16:16:32;28.10;77.30
50606;DHT22;36557;53.572;10.170;2023-09-07T16:18:59;28.00;78.00
50606;DHT22;36557;53.572;10.170;2023-09-07T16:21:25;27.90;77.50
50606;DHT22;36557;53.572;10.170;2023-09-07T16:23:51;27.90;77.80
50606;DHT22;36557;53.572;10.170;2023-09-07T16:26:17;27.90;78.00
50606;DHT22;36557;53.572;10.170;2023-09-07T16:28:43;27.80;79.00
50606;DHT22;36557;53.572;10.170;2023-09-07T16:31:09;27.70;78.70
50606;DHT22;36557;53.572;10.170;2023-09-07T16:33:34;27.70;78.50
50606;DHT22;36557;53.572;10.170;2023-09-07T16:36:00;27.60;79.80
50606;DHT22;36557;53.572;10.170;2023-09-07T16:38:26;27.50;78.80
50606;DHT22;36557;53.572;10.170;2023-09-07T16:40:52;27.50;79.30
50606;DHT22;36557;53.572;10.170;2023-09-07T16:43:17;27.40;79.70
50606;DHT22;36557;53.572;10.170;2023-09-07T16:45:43;27.30;79.50
50606;DHT22;36557;53.572;10.170;2023-09-07T16:48:09;27.30;79.90
50606;DHT22;36557;53.572;10.170;2023-09-07T16:50:35;27.20;80.50
50606;DHT22;36557;53.572;10.170;2023-09-07T16:53:01;27.20;80.40
50606;DHT22;36557;53.572;10.170;2023-09-07T16:55:26;27.20;81.20
50606;DHT22;36557;53.572;10.170;2023-09-07T16:57:55;27.00;80.50
50606;DHT22;36557;53.572;10.170;2023-09-07T17:00:21;26.90;81.10
50606;DHT22;36557;53.572;10.170;2023-09-07T17:02:47;26.90;81.00
50606;DHT22;36557;53.572;10.170;2023-09-07T17:05:13;26.90;81.20